Terminal Aerodrome Forecast
Issued by NWS

Current Version | Previous Version | Text Only | Print | Product List | Glossary On
Versions: 1 2 3 4 5 6 7 8 9 10 11 12 13 14 15 16 17 18 19 20 21
000
FTUS41 KBGM 281726
TAFELM
TAF
KELM 281726Z 2818/2918 VRB05KT P6SM FEW045
     FM290000 00000KT P6SM SKC
     FM291000 00000KT 1/2SM FG OVC002
     FM291300 VRB03KT P6SM SKC
     FM291600 22005KT P6SM FEW040=

USA.gov is the U.S. government's official web portal to all federal, state and local government web resources and services.